createdAt,value
2018-08-07T00:10:13.935Z,53.10
2018-08-07T00:12:42.419Z,53.40
2018-08-07T00:15:12.404Z,53.70
2018-08-07T00:17:40.938Z,54.50
2018-08-07T01:54:03.947Z,66.20
2018-08-07T03:37:52.549Z,75.10
2018-08-07T04:07:38.372Z,76.70
2018-08-07T05:49:07.211Z,85.00
2018-08-07T05:51:36.920Z,85.70
2018-08-07T05:54:08.961Z,86.00
2018-08-07T05:56:37.592Z,86.30
2018-08-07T05:59:07.008Z,86.40
2018-08-07T06:04:04.486Z,86.90
2018-08-07T06:06:32.954Z,87.10
2018-08-07T06:09:01.591Z,87.20
2018-08-07T06:11:30.094Z,87.70
2018-08-07T06:16:26.745Z,88.20
2018-08-07T06:18:58.340Z,88.30
2018-08-07T06:21:26.913Z,88.50
2018-08-07T06:23:55.404Z,88.50
2018-08-07T06:28:52.412Z,88.70
2018-08-07T06:31:20.982Z,88.70
2018-08-07T06:33:49.589Z,88.70
2018-08-07T06:36:18.118Z,88.90
2018-08-07T06:38:46.640Z,88.90
2018-08-07T06:41:15.189Z,88.60
2018-08-07T06:43:43.757Z,88.20
2018-08-07T06:46:12.340Z,88.40
2018-08-07T06:48:40.789Z,87.20
2018-08-07T06:51:09.274Z,86.90
2018-08-07T06:53:37.776Z,86.90
2018-08-07T06:56:07.049Z,87.60
2018-08-07T06:58:35.624Z,88.10
2018-08-07T07:01:04.120Z,86.70
2018-08-07T07:03:32.936Z,87.20
2018-08-07T07:06:01.473Z,87.90
2018-08-07T07:08:30.572Z,87.20
2018-08-07T07:10:59.023Z,87.00
2018-08-07T07:13:28.209Z,86.70
2018-08-07T07:15:56.763Z,87.00
2018-08-07T07:18:29.799Z,88.10
2018-08-07T07:20:58.581Z,88.40
2018-08-07T07:23:27.056Z,87.50
2018-08-07T07:25:56.372Z,87.10
2018-08-07T07:28:24.964Z,86.60
2018-08-07T07:30:53.502Z,86.10
2018-08-07T07:33:21.969Z,86.10
2018-08-07T07:35:50.457Z,85.70
2018-08-07T07:38:18.939Z,85.40
2018-08-07T07:40:47.577Z,84.50
2018-08-07T07:43:15.988Z,83.70
2018-08-07T07:45:44.433Z,83.70
2018-08-07T07:48:12.931Z,83.70
2018-08-07T07:50:41.399Z,82.70
2018-08-07T07:53:09.910Z,82.40
2018-08-07T07:55:38.334Z,82.00
2018-08-07T07:58:06.904Z,78.50
2018-08-07T08:00:35.421Z,79.10
2018-08-07T08:03:04.053Z,78.10
2018-08-07T08:05:32.635Z,77.50
2018-08-07T08:08:01.114Z,75.40
2018-08-07T08:10:29.620Z,74.00
2018-08-07T08:12:58.691Z,75.10
2018-08-07T08:15:27.159Z,75.00
2018-08-07T08:17:55.635Z,74.00
2018-08-07T08:20:25.262Z,72.50
2018-08-07T08:22:54.478Z,72.80
2018-08-07T08:25:22.985Z,72.00
2018-08-07T08:27:52.120Z,71.40
2018-08-07T08:30:20.665Z,70.60
2018-08-07T08:32:49.346Z,70.00
2018-08-07T08:35:18.856Z,66.30
2018-08-07T08:37:47.846Z,65.10
2018-08-07T08:40:19.684Z,64.50
2018-08-07T08:42:48.168Z,61.20
2018-08-07T08:45:21.369Z,60.40
2018-08-07T08:47:52.079Z,61.70
2018-08-07T08:50:21.440Z,59.50
2018-08-07T08:52:49.973Z,58.50
2018-08-07T08:55:18.384Z,55.50
2018-08-07T08:57:46.962Z,56.70
2018-08-07T09:00:21.829Z,55.30
2018-08-07T09:02:50.351Z,52.70
2018-08-07T09:07:46.995Z,48.90
2018-08-07T09:10:19.836Z,50.30
2018-08-07T09:12:48.692Z,50.20
2018-08-07T09:15:17.514Z,49.10
2018-08-07T09:17:46.088Z,48.60
2018-08-07T09:20:18.876Z,46.80
2018-08-07T09:22:47.451Z,46.90
2018-08-07T09:25:16.180Z,46.20
2018-08-07T09:27:44.888Z,43.40
2018-08-07T09:30:16.894Z,42.00
2018-08-07T09:32:46.678Z,42.60
2018-08-07T09:35:15.764Z,42.90
2018-08-07T09:37:44.531Z,42.40
2018-08-07T09:40:16.823Z,40.80
2018-08-07T09:42:47.029Z,40.20
2018-08-07T09:45:18.066Z,39.20
2018-08-07T09:50:16.134Z,38.80
2018-08-07T09:52:46.144Z,37.40
2018-08-07T09:55:15.010Z,37.80
2018-08-07T09:57:43.714Z,36.80
2018-08-07T10:00:23.785Z,36.10
2018-08-07T10:02:54.350Z,36.00
2018-08-07T10:05:25.041Z,35.60
2018-08-07T10:07:53.517Z,35.50
2018-08-07T10:10:22.304Z,35.30
2018-08-07T10:12:52.468Z,34.40
2018-08-07T10:15:20.937Z,32.20
2018-08-07T10:17:49.492Z,32.80
2018-08-07T10:22:46.199Z,33.00
2018-08-07T10:25:16.913Z,32.90
2018-08-07T10:27:46.251Z,32.70
2018-08-07T10:30:20.327Z,31.90
2018-08-07T10:32:49.272Z,31.80
2018-08-07T10:35:18.498Z,31.10
2018-08-07T10:37:47.300Z,31.30
2018-08-07T10:40:20.633Z,31.30
2018-08-07T10:42:49.241Z,30.90
2018-08-07T10:45:19.304Z,29.40
2018-08-07T10:47:48.533Z,29.30
2018-08-07T10:50:20.361Z,28.90
2018-08-07T10:52:49.159Z,29.20
2018-08-07T10:55:17.829Z,27.80
2018-08-07T10:57:47.580Z,28.00
2018-08-07T11:00:19.273Z,28.10
2018-08-07T11:02:49.049Z,27.70
2018-08-07T11:05:17.977Z,27.70
2018-08-07T11:07:46.490Z,27.60
2018-08-07T11:10:15.378Z,27.70
2018-08-07T11:12:43.872Z,26.90
2018-08-07T11:15:17.089Z,26.80
2018-08-07T11:20:14.985Z,26.70
2018-08-07T11:22:45.153Z,26.60
2018-08-07T11:25:13.799Z,26.30
2018-08-07T11:27:42.553Z,26.60
2018-08-07T11:30:14.114Z,26.80
2018-08-07T11:32:42.905Z,26.40
2018-08-07T11:35:11.920Z,25.90
2018-08-07T11:37:40.446Z,26.20
2018-08-07T11:40:11.818Z,26.00
2018-08-07T11:42:40.874Z,25.80
2018-08-07T11:45:11.401Z,25.50
2018-08-07T11:47:39.946Z,25.10
2018-08-07T11:50:10.887Z,25.30
2018-08-07T11:52:39.726Z,25.20
2018-08-07T11:55:09.687Z,25.10
2018-08-07T11:57:38.166Z,25.10
2018-08-07T12:00:15.003Z,25.00
2018-08-07T12:02:43.695Z,24.70
2018-08-07T12:05:12.236Z,24.90
2018-08-07T12:07:41.027Z,25.00
2018-08-07T12:10:11.025Z,24.80
2018-08-07T12:12:40.105Z,24.90
2018-08-07T12:15:10.685Z,24.80
2018-08-07T12:17:39.463Z,24.70
2018-08-07T12:20:08.231Z,24.50
2018-08-07T12:22:36.770Z,24.20
2018-08-07T12:25:06.085Z,24.10
2018-08-07T12:27:34.601Z,23.70
2018-08-07T12:30:03.245Z,23.70
2018-08-07T12:32:31.723Z,24.00
2018-08-07T12:37:28.446Z,23.80
2018-08-07T12:39:56.939Z,23.80
2018-08-07T12:44:54.769Z,23.90
2018-08-07T12:47:23.412Z,23.80
2018-08-07T12:49:52.049Z,23.90
2018-08-07T12:52:20.583Z,24.10
2018-08-07T12:54:49.224Z,24.00
2018-08-07T12:57:17.742Z,23.80
2018-08-07T12:59:46.680Z,23.50
2018-08-07T13:02:15.163Z,23.60
2018-08-07T13:04:43.611Z,23.50
2018-08-07T13:07:12.072Z,23.10
2018-08-07T13:09:40.613Z,23.10
2018-08-07T13:12:09.151Z,23.00
2018-08-07T13:14:38.277Z,23.20
2018-08-07T13:17:06.773Z,23.30
2018-08-07T13:19:35.277Z,23.00
2018-08-07T13:22:03.849Z,22.80
2018-08-07T13:24:32.325Z,23.00
2018-08-07T13:27:00.828Z,23.20
2018-08-07T13:29:29.313Z,23.20
2018-08-07T13:31:57.790Z,23.30
2018-08-07T13:34:26.265Z,23.20
2018-08-07T13:36:54.945Z,23.00
2018-08-07T13:39:23.518Z,23.20
2018-08-07T13:41:52.079Z,23.00
2018-08-07T13:44:20.774Z,22.90
2018-08-07T13:46:50.628Z,22.80
2018-08-07T13:49:19.149Z,23.10
2018-08-07T13:51:47.705Z,22.90
2018-08-07T13:54:16.155Z,22.60
2018-08-07T13:56:45.016Z,22.90
2018-08-07T13:59:13.624Z,23.00
2018-08-07T14:01:42.056Z,23.10
2018-08-07T14:04:11.402Z,22.60
2018-08-07T14:06:40.026Z,22.80
2018-08-07T14:09:09.236Z,23.00
2018-08-07T14:11:37.766Z,22.70
2018-08-07T14:14:06.323Z,23.00
2018-08-07T14:16:34.948Z,23.10
2018-08-07T14:19:03.565Z,23.30
2018-08-07T14:21:32.040Z,23.30
2018-08-07T14:24:00.589Z,23.30
2018-08-07T14:26:29.110Z,23.50
2018-08-07T14:28:57.641Z,23.30
2018-08-07T14:31:26.254Z,24.10
2018-08-07T14:33:54.813Z,23.50
2018-08-07T14:36:23.585Z,23.60
2018-08-07T14:38:52.089Z,23.70
2018-08-07T14:41:20.544Z,23.60
2018-08-07T14:43:49.040Z,23.90
2018-08-07T14:46:18.278Z,23.60
2018-08-07T14:48:46.700Z,23.70
2018-08-07T14:51:15.238Z,23.70
2018-08-07T14:53:43.741Z,23.80
2018-08-07T14:56:12.339Z,23.90
2018-08-07T14:58:40.811Z,23.70
2018-08-07T15:01:09.359Z,23.80
2018-08-07T15:03:37.880Z,24.20
2018-08-07T15:08:34.771Z,24.20
2018-08-07T15:11:03.229Z,24.10
2018-08-07T15:13:31.735Z,24.30
2018-08-07T15:16:00.379Z,24.50
2018-08-07T15:18:28.876Z,24.40
2018-08-07T15:20:57.763Z,24.60
2018-08-07T15:23:26.336Z,24.70
2018-08-07T15:25:54.845Z,24.80
2018-08-07T15:28:25.144Z,24.90
2018-08-07T15:30:53.908Z,24.90
2018-08-07T15:33:23.918Z,25.10
2018-08-07T15:35:52.437Z,25.10
2018-08-07T15:38:20.955Z,25.40
2018-08-07T15:40:49.656Z,25.60
2018-08-07T15:43:18.227Z,25.60
2018-08-07T15:45:46.702Z,25.60
2018-08-07T15:48:15.316Z,25.70
2018-08-07T15:50:43.834Z,25.80
2018-08-07T15:53:12.350Z,26.30
2018-08-07T15:55:41.025Z,26.10
2018-08-07T15:58:09.929Z,26.10
2018-08-07T16:00:38.488Z,26.30
2018-08-07T16:03:07.341Z,26.50
2018-08-07T16:05:35.878Z,26.40
2018-08-07T16:08:04.484Z,26.60
2018-08-07T16:10:32.993Z,26.70
2018-08-07T16:13:01.560Z,26.60
2018-08-07T16:15:30.483Z,26.70
2018-08-07T16:17:59.115Z,26.90
2018-08-07T16:20:28.408Z,27.00
2018-08-07T16:22:56.936Z,27.00
2018-08-07T16:25:25.884Z,27.10
2018-08-07T16:27:54.991Z,27.20
2018-08-07T16:30:26.461Z,27.40
2018-08-07T16:32:55.692Z,27.50
2018-08-07T16:35:24.324Z,27.60
2018-08-07T16:37:52.869Z,27.80
2018-08-07T16:40:23.714Z,27.90
2018-08-07T16:42:53.792Z,27.90
2018-08-07T16:45:23.189Z,28.10
2018-08-07T16:47:55.001Z,28.20
2018-08-07T16:50:27.022Z,28.30
2018-08-07T16:52:56.737Z,28.40
2018-08-07T16:55:26.824Z,28.60
2018-08-07T17:00:24.698Z,28.80
2018-08-07T17:02:53.297Z,28.90
2018-08-07T17:05:21.782Z,29.00
2018-08-07T17:07:50.663Z,28.90
2018-08-07T17:10:22.854Z,29.00
2018-08-07T17:12:51.424Z,29.20
2018-08-07T17:15:20.401Z,29.30
2018-08-07T17:17:49.184Z,29.50
2018-08-07T17:20:19.925Z,29.50
2018-08-07T17:22:48.711Z,29.70
2018-08-07T17:25:18.446Z,29.70
2018-08-07T17:27:48.445Z,29.70
2018-08-07T17:30:20.554Z,29.70
2018-08-07T17:32:49.347Z,29.90
2018-08-07T17:35:19.989Z,29.90
2018-08-07T17:42:46.650Z,30.20
2018-08-07T17:45:15.176Z,30.30
2018-08-07T17:47:43.617Z,30.50
2018-08-07T17:50:14.718Z,30.50
2018-08-07T17:52:43.342Z,30.60
2018-08-07T17:55:11.869Z,30.80
2018-08-07T17:57:40.412Z,30.80
2018-08-07T18:00:13.939Z,30.90
2018-08-07T18:02:43.050Z,31.00
2018-08-07T18:05:11.645Z,31.10
2018-08-07T18:07:41.500Z,31.20
2018-08-07T18:12:39.474Z,31.40
2018-08-07T18:15:11.437Z,31.40
2018-08-07T18:20:10.006Z,31.70
2018-08-07T18:22:39.469Z,31.90
2018-08-07T18:25:08.813Z,31.90
2018-08-07T18:27:37.489Z,32.10
2018-08-07T18:30:10.908Z,32.10
2018-08-07T18:32:40.239Z,32.30
2018-08-07T18:35:10.759Z,32.40
2018-08-07T18:37:39.284Z,32.50
2018-08-07T18:40:08.756Z,32.50
2018-08-07T18:42:37.681Z,32.50
2018-08-07T18:45:09.519Z,32.60
2018-08-07T18:55:05.063Z,32.70
2018-08-07T18:57:33.643Z,33.00
2018-08-07T19:00:02.147Z,33.00
2018-08-07T19:04:59.074Z,33.20
2018-08-07T19:07:27.729Z,33.60
2018-08-07T19:09:56.509Z,33.90
2018-08-07T22:25:37.802Z,40.10
2018-08-07T22:31:54.641Z,60.10
2018-08-07T22:34:23.086Z,61.00
2018-08-07T22:36:51.700Z,62.10
2018-08-07T22:39:20.181Z,62.90
2018-08-07T22:41:48.782Z,62.40
2018-08-07T22:44:17.472Z,59.20
2018-08-07T22:46:46.000Z,59.20
2018-08-07T22:49:14.516Z,60.30
2018-08-07T22:51:43.061Z,60.80
2018-08-07T22:54:11.604Z,61.70
2018-08-07T22:56:40.022Z,62.20
2018-08-07T22:59:08.435Z,62.40
2018-08-07T23:01:36.995Z,63.10
2018-08-07T23:04:05.828Z,63.90
2018-08-07T23:06:34.412Z,63.90
2018-08-07T23:09:02.883Z,65.10
2018-08-07T23:11:31.401Z,66.10
2018-08-07T23:13:59.849Z,67.00
2018-08-07T23:16:28.600Z,68.10
2018-08-07T23:18:57.109Z,69.30
2018-08-07T23:21:25.592Z,70.70
2018-08-07T23:23:54.138Z,71.70
2018-08-07T23:26:22.699Z,72.40
2018-08-07T23:28:51.204Z,73.30
2018-08-07T23:31:22.679Z,73.40
2018-08-07T23:33:51.176Z,73.70
2018-08-07T23:36:19.623Z,74.10
2018-08-07T23:38:48.169Z,74.70
2018-08-07T23:41:16.755Z,74.90
2018-08-07T23:43:45.225Z,75.70
2018-08-07T23:46:13.698Z,76.30
2018-08-07T23:48:42.229Z,76.60
2018-08-07T23:51:10.727Z,77.00
2018-08-07T23:53:39.274Z,77.60
2018-08-07T23:56:08.021Z,77.80
2018-08-07T23:58:36.539Z,78.30
